sensor_id;sensor_type;location;lat;lon;timestamp;P1;durP1;ratioP1;P2;durP2;ratioP2
71435;SDS011;59251;51.326;12.370;2023-03-01T00:01:13;20.30;;;9.27;;
71435;SDS011;59251;51.326;12.370;2023-03-01T00:03:40;21.65;;;8.98;;
71435;SDS011;59251;51.326;12.370;2023-03-01T00:06:07;21.70;;;9.57;;
71435;SDS011;59251;51.326;12.370;2023-03-01T00:08:33;20.38;;;9.40;;
71435;SDS011;59251;51.326;12.370;2023-03-01T00:10:59;23.17;;;8.07;;
71435;SDS011;59251;51.326;12.370;2023-03-01T00:13:33;22.45;;;8.95;;
71435;SDS011;59251;51.326;12.370;2023-03-01T00:16:01;22.60;;;8.55;;
71435;SDS011;59251;51.326;12.370;2023-03-01T00:18:29;18.48;;;8.50;;
71435;SDS011;59251;51.326;12.370;2023-03-01T00:20:55;22.67;;;9.40;;
71435;SDS011;59251;51.326;12.370;2023-03-01T00:23:21;19.98;;;8.82;;
71435;SDS011;59251;51.326;12.370;2023-03-01T00:25:47;20.70;;;8.73;;
71435;SDS011;59251;51.326;12.370;2023-03-01T00:28:13;20.13;;;7.63;;
71435;SDS011;59251;51.326;12.370;2023-03-01T00:30:38;18.67;;;7.90;;
71435;SDS011;59251;51.326;12.370;2023-03-01T00:33:03;20.57;;;8.20;;
71435;SDS011;59251;51.326;12.370;2023-03-01T00:35:29;19.30;;;8.13;;
71435;SDS011;59251;51.326;12.370;2023-03-01T00:37:58;17.58;;;7.88;;
71435;SDS011;59251;51.326;12.370;2023-03-01T00:40:24;20.40;;;7.70;;
71435;SDS011;59251;51.326;12.370;2023-03-01T00:42:50;18.67;;;7.20;;
71435;SDS011;59251;51.326;12.370;2023-03-01T00:45:15;19.40;;;8.27;;
71435;SDS011;59251;51.326;12.370;2023-03-01T00:47:41;21.75;;;8.00;;
71435;SDS011;59251;51.326;12.370;2023-03-01T00:50:07;21.83;;;8.05;;
71435;SDS011;59251;51.326;12.370;2023-03-01T00:52:33;17.95;;;7.00;;
71435;SDS011;59251;51.326;12.370;2023-03-01T00:54:59;19.93;;;8.00;;
71435;SDS011;59251;51.326;12.370;2023-03-01T00:57:24;18.67;;;7.47;;
71435;SDS011;59251;51.326;12.370;2023-03-01T00:59:49;15.85;;;7.32;;
71435;SDS011;59251;51.326;12.370;2023-03-01T01:02:17;17.67;;;7.20;;
71435;SDS011;59251;51.326;12.370;2023-03-01T01:04:43;16.48;;;6.80;;
71435;SDS011;59251;51.326;12.370;2023-03-01T01:07:09;19.58;;;7.63;;
71435;SDS011;59251;51.326;12.370;2023-03-01T01:09:34;19.10;;;7.40;;
71435;SDS011;59251;51.326;12.370;2023-03-01T01:12:00;18.20;;;7.60;;
71435;SDS011;59251;51.326;12.370;2023-03-01T01:14:26;16.45;;;7.05;;
71435;SDS011;59251;51.326;12.370;2023-03-01T01:16:51;17.93;;;8.00;;
71435;SDS011;59251;51.326;12.370;2023-03-01T01:19:17;17.00;;;7.20;;
71435;SDS011;59251;51.326;12.370;2023-03-01T01:21:43;16.40;;;6.60;;
71435;SDS011;59251;51.326;12.370;2023-03-01T01:24:09;18.38;;;7.05;;
71435;SDS011;59251;51.326;12.370;2023-03-01T01:26:35;18.83;;;7.20;;
71435;SDS011;59251;51.326;12.370;2023-03-01T01:29:02;18.63;;;6.93;;
71435;SDS011;59251;51.326;12.370;2023-03-01T01:31:28;21.07;;;7.33;;
71435;SDS011;59251;51.326;12.370;2023-03-01T01:33:55;19.75;;;7.90;;
71435;SDS011;59251;51.326;12.370;2023-03-01T01:36:21;21.60;;;8.13;;
71435;SDS011;59251;51.326;12.370;2023-03-01T01:38:47;18.83;;;7.60;;
71435;SDS011;59251;51.326;12.370;2023-03-01T01:41:12;16.77;;;7.37;;
71435;SDS011;59251;51.326;12.370;2023-03-01T01:43:43;17.23;;;7.28;;
71435;SDS011;59251;51.326;12.370;2023-03-01T01:46:20;16.88;;;7.57;;
71435;SDS011;59251;51.326;12.370;2023-03-01T01:48:53;17.00;;;7.00;;
71435;SDS011;59251;51.326;12.370;2023-03-01T01:51:25;19.83;;;6.95;;
71435;SDS011;59251;51.326;12.370;2023-03-01T01:53:53;15.80;;;7.00;;
71435;SDS011;59251;51.326;12.370;2023-03-01T01:56:24;17.83;;;6.90;;
71435;SDS011;59251;51.326;12.370;2023-03-01T01:58:51;16.42;;;7.28;;
71435;SDS011;59251;51.326;12.370;2023-03-01T02:01:17;17.35;;;7.43;;
71435;SDS011;59251;51.326;12.370;2023-03-01T02:03:43;16.43;;;7.23;;
71435;SDS011;59251;51.326;12.370;2023-03-01T02:08:35;17.53;;;7.73;;
71435;SDS011;59251;51.326;12.370;2023-03-01T02:11:03;17.70;;;7.27;;
71435;SDS011;59251;51.326;12.370;2023-03-01T02:13:31;16.50;;;7.05;;
71435;SDS011;59251;51.326;12.370;2023-03-01T02:15:57;19.88;;;6.88;;
71435;SDS011;59251;51.326;12.370;2023-03-01T02:18:23;17.40;;;7.45;;
71435;SDS011;59251;51.326;12.370;2023-03-01T02:23:29;19.52;;;7.22;;
71435;SDS011;59251;51.326;12.370;2023-03-01T02:25:57;18.87;;;6.70;;
71435;SDS011;59251;51.326;12.370;2023-03-01T02:28:32;18.25;;;6.40;;
71435;SDS011;59251;51.326;12.370;2023-03-01T02:31:03;16.60;;;6.88;;
71435;SDS011;59251;51.326;12.370;2023-03-01T02:33:49;18.83;;;7.30;;
71435;SDS011;59251;51.326;12.370;2023-03-01T02:36:17;15.85;;;7.22;;
71435;SDS011;59251;51.326;12.370;2023-03-01T02:38:47;18.80;;;7.13;;
71435;SDS011;59251;51.326;12.370;2023-03-01T02:41:15;15.90;;;6.72;;
71435;SDS011;59251;51.326;12.370;2023-03-01T02:43:42;19.00;;;8.13;;
71435;SDS011;59251;51.326;12.370;2023-03-01T02:46:12;19.47;;;7.73;;
71435;SDS011;59251;51.326;12.370;2023-03-01T02:48:47;16.13;;;6.88;;
71435;SDS011;59251;51.326;12.370;2023-03-01T02:51:25;17.05;;;6.53;;
71435;SDS011;59251;51.326;12.370;2023-03-01T02:54:10;18.90;;;6.97;;
71435;SDS011;59251;51.326;12.370;2023-03-01T02:56:42;17.23;;;6.50;;
71435;SDS011;59251;51.326;12.370;2023-03-01T02:59:09;16.50;;;6.70;;
71435;SDS011;59251;51.326;12.370;2023-03-01T03:01:35;17.08;;;6.45;;
71435;SDS011;59251;51.326;12.370;2023-03-01T03:04:04;18.48;;;7.35;;
71435;SDS011;59251;51.326;12.370;2023-03-01T03:06:31;17.77;;;6.93;;
71435;SDS011;59251;51.326;12.370;2023-03-01T03:08:56;19.77;;;7.40;;
71435;SDS011;59251;51.326;12.370;2023-03-01T03:11:22;15.13;;;7.00;;
71435;SDS011;59251;51.326;12.370;2023-03-01T03:13:48;22.88;;;8.05;;
71435;SDS011;59251;51.326;12.370;2023-03-01T03:16:14;20.17;;;7.33;;
71435;SDS011;59251;51.326;12.370;2023-03-01T03:18:39;19.63;;;7.53;;
71435;SDS011;59251;51.326;12.370;2023-03-01T03:21:08;18.37;;;7.27;;
71435;SDS011;59251;51.326;12.370;2023-03-01T03:23:35;17.92;;;7.47;;
71435;SDS011;59251;51.326;12.370;2023-03-01T03:26:01;17.65;;;6.93;;
71435;SDS011;59251;51.326;12.370;2023-03-01T03:28:29;17.87;;;7.30;;
71435;SDS011;59251;51.326;12.370;2023-03-01T03:30:55;17.83;;;6.45;;
71435;SDS011;59251;51.326;12.370;2023-03-01T03:33:21;19.63;;;7.05;;
71435;SDS011;59251;51.326;12.370;2023-03-01T03:35:47;16.20;;;6.33;;
71435;SDS011;59251;51.326;12.370;2023-03-01T03:38:14;15.85;;;6.82;;
71435;SDS011;59251;51.326;12.370;2023-03-01T03:40:45;16.77;;;6.43;;
71435;SDS011;59251;51.326;12.370;2023-03-01T03:43:13;17.77;;;6.68;;
71435;SDS011;59251;51.326;12.370;2023-03-01T03:45:41;15.15;;;6.55;;
71435;SDS011;59251;51.326;12.370;2023-03-01T03:48:09;15.52;;;6.55;;
71435;SDS011;59251;51.326;12.370;2023-03-01T03:50:35;16.97;;;7.30;;
71435;SDS011;59251;51.326;12.370;2023-03-01T03:53:02;17.45;;;7.13;;
71435;SDS011;59251;51.326;12.370;2023-03-01T03:55:29;17.95;;;6.97;;
71435;SDS011;59251;51.326;12.370;2023-03-01T03:57:56;17.88;;;7.05;;
71435;SDS011;59251;51.326;12.370;2023-03-01T04:00:26;14.95;;;6.93;;
71435;SDS011;59251;51.326;12.370;2023-03-01T04:02:52;15.30;;;6.27;;
71435;SDS011;59251;51.326;12.370;2023-03-01T04:05:21;17.98;;;7.10;;
71435;SDS011;59251;51.326;12.370;2023-03-01T04:07:47;18.92;;;8.02;;
71435;SDS011;59251;51.326;12.370;2023-03-01T04:10:16;18.13;;;7.23;;
71435;SDS011;59251;51.326;12.370;2023-03-01T04:12:42;20.23;;;7.75;;
71435;SDS011;59251;51.326;12.370;2023-03-01T04:15:08;19.70;;;7.83;;
71435;SDS011;59251;51.326;12.370;2023-03-01T04:17:41;19.33;;;7.97;;
71435;SDS011;59251;51.326;12.370;2023-03-01T04:20:14;19.73;;;8.15;;
71435;SDS011;59251;51.326;12.370;2023-03-01T04:22:50;18.42;;;6.78;;
71435;SDS011;59251;51.326;12.370;2023-03-01T04:25:23;19.57;;;7.97;;
71435;SDS011;59251;51.326;12.370;2023-03-01T04:27:49;17.75;;;7.25;;
71435;SDS011;59251;51.326;12.370;2023-03-01T04:30:14;20.93;;;7.63;;
71435;SDS011;59251;51.326;12.370;2023-03-01T04:32:40;19.38;;;7.18;;
71435;SDS011;59251;51.326;12.370;2023-03-01T04:35:05;22.67;;;8.75;;
71435;SDS011;59251;51.326;12.370;2023-03-01T04:37:31;20.30;;;8.60;;
71435;SDS011;59251;51.326;12.370;2023-03-01T04:39:56;18.63;;;8.27;;
71435;SDS011;59251;51.326;12.370;2023-03-01T04:42:22;18.35;;;7.88;;
71435;SDS011;59251;51.326;12.370;2023-03-01T04:44:48;24.07;;;8.30;;
71435;SDS011;59251;51.326;12.370;2023-03-01T04:47:16;18.40;;;7.82;;
71435;SDS011;59251;51.326;12.370;2023-03-01T04:49:41;19.23;;;8.13;;
71435;SDS011;59251;51.326;12.370;2023-03-01T04:52:07;20.38;;;8.27;;
71435;SDS011;59251;51.326;12.370;2023-03-01T04:54:33;21.60;;;8.03;;
71435;SDS011;59251;51.326;12.370;2023-03-01T04:56:59;18.88;;;6.78;;
71435;SDS011;59251;51.326;12.370;2023-03-01T04:59:25;18.73;;;8.07;;
71435;SDS011;59251;51.326;12.370;2023-03-01T05:01:51;18.85;;;7.80;;
71435;SDS011;59251;51.326;12.370;2023-03-01T05:04:17;17.80;;;7.57;;
71435;SDS011;59251;51.326;12.370;2023-03-01T05:06:42;19.48;;;7.25;;
71435;SDS011;59251;51.326;12.370;2023-03-01T05:09:08;18.97;;;7.50;;
71435;SDS011;59251;51.326;12.370;2023-03-01T05:11:34;18.17;;;7.37;;
71435;SDS011;59251;51.326;12.370;2023-03-01T05:14:04;20.63;;;8.35;;
71435;SDS011;59251;51.326;12.370;2023-03-01T05:16:31;19.45;;;8.63;;
71435;SDS011;59251;51.326;12.370;2023-03-01T05:18:57;43.58;;;8.07;;
71435;SDS011;59251;51.326;12.370;2023-03-01T05:21:23;19.77;;;8.38;;
71435;SDS011;59251;51.326;12.370;2023-03-01T05:23:49;19.20;;;7.27;;
71435;SDS011;59251;51.326;12.370;2023-03-01T05:26:15;18.25;;;7.80;;
71435;SDS011;59251;51.326;12.370;2023-03-01T05:28:42;19.00;;;8.07;;
71435;SDS011;59251;51.326;12.370;2023-03-01T05:31:08;21.77;;;8.57;;
71435;SDS011;59251;51.326;12.370;2023-03-01T05:33:35;19.85;;;7.82;;
71435;SDS011;59251;51.326;12.370;2023-03-01T05:36:02;21.25;;;8.48;;
71435;SDS011;59251;51.326;12.370;2023-03-01T05:38:27;20.97;;;8.33;;
71435;SDS011;59251;51.326;12.370;2023-03-01T05:40:53;21.20;;;7.70;;
71435;SDS011;59251;51.326;12.370;2023-03-01T05:43:18;21.47;;;8.60;;
71435;SDS011;59251;51.326;12.370;2023-03-01T05:45:44;22.58;;;8.82;;
71435;SDS011;59251;51.326;12.370;2023-03-01T05:48:10;22.33;;;8.38;;
71435;SDS011;59251;51.326;12.370;2023-03-01T05:50:38;22.17;;;8.95;;
71435;SDS011;59251;51.326;12.370;2023-03-01T05:53:26;24.80;;;9.13;;
71435;SDS011;59251;51.326;12.370;2023-03-01T05:55:51;22.15;;;9.20;;
71435;SDS011;59251;51.326;12.370;2023-03-01T05:58:17;24.20;;;8.87;;
71435;SDS011;59251;51.326;12.370;2023-03-01T06:00:46;24.27;;;8.82;;
71435;SDS011;59251;51.326;12.370;2023-03-01T06:03:13;22.93;;;9.47;;
71435;SDS011;59251;51.326;12.370;2023-03-01T06:05:41;21.05;;;8.75;;
71435;SDS011;59251;51.326;12.370;2023-03-01T06:08:06;25.65;;;9.77;;
71435;SDS011;59251;51.326;12.370;2023-03-01T06:10:32;24.70;;;9.80;;
71435;SDS011;59251;51.326;12.370;2023-03-01T06:12:57;21.30;;;8.73;;
71435;SDS011;59251;51.326;12.370;2023-03-01T06:15:24;22.15;;;8.30;;
71435;SDS011;59251;51.326;12.370;2023-03-01T06:17:49;21.48;;;9.50;;
71435;SDS011;59251;51.326;12.370;2023-03-01T06:20:19;27.20;;;9.80;;
71435;SDS011;59251;51.326;12.370;2023-03-01T06:22:47;21.65;;;8.73;;
71435;SDS011;59251;51.326;12.370;2023-03-01T06:25:14;25.40;;;8.65;;
71435;SDS011;59251;51.326;12.370;2023-03-01T06:27:42;20.50;;;9.30;;
71435;SDS011;59251;51.326;12.370;2023-03-01T06:30:08;25.10;;;8.98;;
71435;SDS011;59251;51.326;12.370;2023-03-01T06:32:35;23.48;;;9.00;;
71435;SDS011;59251;51.326;12.370;2023-03-01T06:35:02;21.42;;;9.88;;
71435;SDS011;59251;51.326;12.370;2023-03-01T06:37:28;23.00;;;8.90;;
71435;SDS011;59251;51.326;12.370;2023-03-01T06:39:53;23.75;;;8.98;;
71435;SDS011;59251;51.326;12.370;2023-03-01T06:42:18;23.63;;;9.67;;
71435;SDS011;59251;51.326;12.370;2023-03-01T06:44:44;22.13;;;9.50;;
71435;SDS011;59251;51.326;12.370;2023-03-01T06:47:09;23.37;;;9.70;;
71435;SDS011;59251;51.326;12.370;2023-03-01T06:49:34;27.83;;;9.60;;
71435;SDS011;59251;51.326;12.370;2023-03-01T06:52:00;19.47;;;8.00;;
71435;SDS011;59251;51.326;12.370;2023-03-01T06:54:25;25.25;;;9.55;;
71435;SDS011;59251;51.326;12.370;2023-03-01T06:56:51;22.35;;;8.23;;
71435;SDS011;59251;51.326;12.370;2023-03-01T06:59:16;18.00;;;9.03;;
71435;SDS011;59251;51.326;12.370;2023-03-01T07:01:42;20.47;;;8.70;;
71435;SDS011;59251;51.326;12.370;2023-03-01T07:04:08;25.00;;;9.40;;
71435;SDS011;59251;51.326;12.370;2023-03-01T07:06:34;24.90;;;9.48;;
71435;SDS011;59251;51.326;12.370;2023-03-01T07:08:59;21.67;;;10.00;;
71435;SDS011;59251;51.326;12.370;2023-03-01T07:11:25;23.90;;;9.57;;
71435;SDS011;59251;51.326;12.370;2023-03-01T07:13:50;26.30;;;9.68;;
71435;SDS011;59251;51.326;12.370;2023-03-01T07:16:16;27.38;;;10.73;;
71435;SDS011;59251;51.326;12.370;2023-03-01T07:18:41;21.73;;;8.80;;
71435;SDS011;59251;51.326;12.370;2023-03-01T07:21:08;23.57;;;9.73;;
71435;SDS011;59251;51.326;12.370;2023-03-01T07:23:36;22.50;;;8.90;;
71435;SDS011;59251;51.326;12.370;2023-03-01T07:26:01;23.00;;;10.07;;
71435;SDS011;59251;51.326;12.370;2023-03-01T07:28:27;22.20;;;9.20;;
71435;SDS011;59251;51.326;12.370;2023-03-01T07:30:52;24.63;;;10.00;;
71435;SDS011;59251;51.326;12.370;2023-03-01T07:33:18;23.67;;;9.48;;
71435;SDS011;59251;51.326;12.370;2023-03-01T07:35:44;24.97;;;10.20;;
71435;SDS011;59251;51.326;12.370;2023-03-01T07:38:09;23.33;;;9.33;;
71435;SDS011;59251;51.326;12.370;2023-03-01T07:40:34;24.17;;;8.87;;
71435;SDS011;59251;51.326;12.370;2023-03-01T07:43:00;21.55;;;8.82;;
71435;SDS011;59251;51.326;12.370;2023-03-01T07:45:26;20.57;;;8.33;;
71435;SDS011;59251;51.326;12.370;2023-03-01T07:47:53;27.17;;;9.40;;
71435;SDS011;59251;51.326;12.370;2023-03-01T07:50:19;23.45;;;9.88;;
71435;SDS011;59251;51.326;12.370;2023-03-01T07:52:45;22.00;;;9.83;;
71435;SDS011;59251;51.326;12.370;2023-03-01T07:55:14;27.33;;;9.45;;
71435;SDS011;59251;51.326;12.370;2023-03-01T07:57:40;26.73;;;9.93;;
71435;SDS011;59251;51.326;12.370;2023-03-01T08:00:07;22.02;;;8.95;;
71435;SDS011;59251;51.326;12.370;2023-03-01T08:02:34;32.35;;;9.63;;
71435;SDS011;59251;51.326;12.370;2023-03-01T08:05:00;24.83;;;9.52;;
71435;SDS011;59251;51.326;12.370;2023-03-01T08:07:25;28.52;;;10.10;;
71435;SDS011;59251;51.326;12.370;2023-03-01T08:09:51;30.63;;;9.77;;
71435;SDS011;59251;51.326;12.370;2023-03-01T08:12:16;25.13;;;9.43;;
71435;SDS011;59251;51.326;12.370;2023-03-01T08:14:42;22.67;;;9.47;;
71435;SDS011;59251;51.326;12.370;2023-03-01T08:17:07;21.52;;;9.27;;
71435;SDS011;59251;51.326;12.370;2023-03-01T08:19:33;22.70;;;8.97;;
71435;SDS011;59251;51.326;12.370;2023-03-01T08:21:59;23.45;;;9.70;;
71435;SDS011;59251;51.326;12.370;2023-03-01T08:24:26;26.17;;;9.75;;
71435;SDS011;59251;51.326;12.370;2023-03-01T08:26:52;23.73;;;9.00;;
71435;SDS011;59251;51.326;12.370;2023-03-01T08:29:18;26.63;;;10.07;;
71435;SDS011;59251;51.326;12.370;2023-03-01T08:31:43;26.03;;;9.70;;
71435;SDS011;59251;51.326;12.370;2023-03-01T08:34:10;23.95;;;9.65;;
71435;SDS011;59251;51.326;12.370;2023-03-01T08:36:39;22.15;;;9.10;;
71435;SDS011;59251;51.326;12.370;2023-03-01T08:39:07;26.00;;;9.85;;
71435;SDS011;59251;51.326;12.370;2023-03-01T08:41:33;23.67;;;10.40;;
71435;SDS011;59251;51.326;12.370;2023-03-01T08:43:59;29.60;;;11.18;;
71435;SDS011;59251;51.326;12.370;2023-03-01T08:46:28;24.00;;;10.40;;
71435;SDS011;59251;51.326;12.370;2023-03-01T08:48:54;23.67;;;10.43;;
71435;SDS011;59251;51.326;12.370;2023-03-01T08:51:20;25.63;;;10.90;;
71435;SDS011;59251;51.326;12.370;2023-03-01T08:53:46;26.10;;;9.90;;
71435;SDS011;59251;51.326;12.370;2023-03-01T08:56:13;24.55;;;10.02;;
71435;SDS011;59251;51.326;12.370;2023-03-01T08:58:39;28.38;;;11.07;;
71435;SDS011;59251;51.326;12.370;2023-03-01T09:01:08;22.38;;;10.45;;
71435;SDS011;59251;51.326;12.370;2023-03-01T09:03:34;29.63;;;11.13;;
71435;SDS011;59251;51.326;12.370;2023-03-01T09:06:00;23.07;;;9.90;;
71435;SDS011;59251;51.326;12.370;2023-03-01T09:08:26;24.92;;;10.50;;
71435;SDS011;59251;51.326;12.370;2023-03-01T09:10:52;25.95;;;9.63;;
71435;SDS011;59251;51.326;12.370;2023-03-01T09:13:17;24.83;;;9.60;;
71435;SDS011;59251;51.326;12.370;2023-03-01T09:15:43;26.40;;;11.87;;
71435;SDS011;59251;51.326;12.370;2023-03-01T09:18:08;25.47;;;9.37;;
71435;SDS011;59251;51.326;12.370;2023-03-01T09:20:33;26.57;;;9.73;;
71435;SDS011;59251;51.326;12.370;2023-03-01T09:22:59;20.85;;;9.43;;
71435;SDS011;59251;51.326;12.370;2023-03-01T09:25:24;22.43;;;10.27;;
71435;SDS011;59251;51.326;12.370;2023-03-01T09:27:50;26.80;;;9.77;;
71435;SDS011;59251;51.326;12.370;2023-03-01T09:30:19;28.23;;;10.77;;
71435;SDS011;59251;51.326;12.370;2023-03-01T09:32:45;27.27;;;10.13;;
71435;SDS011;59251;51.326;12.370;2023-03-01T09:35:11;24.13;;;9.67;;
71435;SDS011;59251;51.326;12.370;2023-03-01T09:37:37;22.88;;;10.45;;
71435;SDS011;59251;51.326;12.370;2023-03-01T09:40:04;24.47;;;9.87;;
71435;SDS011;59251;51.326;12.370;2023-03-01T09:42:32;24.48;;;10.68;;
71435;SDS011;59251;51.326;12.370;2023-03-01T09:45:45;25.95;;;9.52;;
71435;SDS011;59251;51.326;12.370;2023-03-01T09:48:03;24.98;;;9.68;;
71435;SDS011;59251;51.326;12.370;2023-03-01T09:50:38;21.37;;;8.80;;
71435;SDS011;59251;51.326;12.370;2023-03-01T09:53:21;24.15;;;10.18;;
71435;SDS011;59251;51.326;12.370;2023-03-01T09:55:53;23.95;;;9.80;;
71435;SDS011;59251;51.326;12.370;2023-03-01T10:06:58;24.95;;;9.60;;
71435;SDS011;59251;51.326;12.370;2023-03-01T10:09:39;23.95;;;9.30;;
71435;SDS011;59251;51.326;12.370;2023-03-01T10:12:14;24.50;;;10.25;;
71435;SDS011;59251;51.326;12.370;2023-03-01T10:14:44;24.02;;;10.00;;
71435;SDS011;59251;51.326;12.370;2023-03-01T10:20:11;22.13;;;9.45;;
71435;SDS011;59251;51.326;12.370;2023-03-01T10:22:39;23.88;;;9.20;;
71435;SDS011;59251;51.326;12.370;2023-03-01T10:25:05;28.40;;;10.03;;
71435;SDS011;59251;51.326;12.370;2023-03-01T10:30:20;23.33;;;9.37;;
71435;SDS011;59251;51.326;12.370;2023-03-01T10:32:54;28.90;;;10.57;;
71435;SDS011;59251;51.326;12.370;2023-03-01T10:40:31;23.33;;;9.27;;
71435;SDS011;59251;51.326;12.370;2023-03-01T10:42:57;21.40;;;10.37;;
71435;SDS011;59251;51.326;12.370;2023-03-01T10:45:33;22.67;;;8.77;;
71435;SDS011;59251;51.326;12.370;2023-03-01T10:50:42;31.63;;;10.48;;
71435;SDS011;59251;51.326;12.370;2023-03-01T10:53:22;21.20;;;8.88;;
71435;SDS011;59251;51.326;12.370;2023-03-01T10:55:58;20.00;;;9.67;;
71435;SDS011;59251;51.326;12.370;2023-03-01T10:58:24;21.48;;;11.10;;
71435;SDS011;59251;51.326;12.370;2023-03-01T11:00:51;22.23;;;8.27;;
71435;SDS011;59251;51.326;12.370;2023-03-01T11:03:26;25.60;;;8.80;;
71435;SDS011;59251;51.326;12.370;2023-03-01T11:05:55;19.58;;;7.85;;
71435;SDS011;59251;51.326;12.370;2023-03-01T11:08:30;21.23;;;9.43;;
71435;SDS011;59251;51.326;12.370;2023-03-01T11:11:05;20.60;;;8.95;;
71435;SDS011;59251;51.326;12.370;2023-03-01T11:13:30;21.07;;;7.40;;
71435;SDS011;59251;51.326;12.370;2023-03-01T11:15:59;19.60;;;8.70;;
71435;SDS011;59251;51.326;12.370;2023-03-01T11:18:25;22.35;;;8.55;;
71435;SDS011;59251;51.326;12.370;2023-03-01T11:20:52;22.83;;;9.65;;
71435;SDS011;59251;51.326;12.370;2023-03-01T11:23:19;26.35;;;9.82;;
71435;SDS011;59251;51.326;12.370;2023-03-01T11:25:51;27.08;;;13.90;;
71435;SDS011;59251;51.326;12.370;2023-03-01T11:28:23;27.00;;;10.70;;
71435;SDS011;59251;51.326;12.370;2023-03-01T11:30:59;24.83;;;9.30;;
71435;SDS011;59251;51.326;12.370;2023-03-01T11:33:44;25.05;;;11.40;;
71435;SDS011;59251;51.326;12.370;2023-03-01T11:38:55;26.30;;;10.13;;
71435;SDS011;59251;51.326;12.370;2023-03-01T11:41:21;24.10;;;11.07;;
71435;SDS011;59251;51.326;12.370;2023-03-01T11:44:05;26.50;;;10.10;;
71435;SDS011;59251;51.326;12.370;2023-03-01T11:55:01;22.93;;;9.10;;
71435;SDS011;59251;51.326;12.370;2023-03-01T12:14:13;25.92;;;11.15;;
71435;SDS011;59251;51.326;12.370;2023-03-01T12:16:58;24.10;;;10.25;;
71435;SDS011;59251;51.326;12.370;2023-03-01T12:27:47;22.83;;;8.80;;
71435;SDS011;59251;51.326;12.370;2023-03-01T12:30:19;20.65;;;8.70;;
71435;SDS011;59251;51.326;12.370;2023-03-01T12:36:06;20.43;;;8.73;;
71435;SDS011;59251;51.326;12.370;2023-03-01T12:39:21;19.27;;;8.85;;
71435;SDS011;59251;51.326;12.370;2023-03-01T12:42:01;18.35;;;7.72;;
71435;SDS011;59251;51.326;12.370;2023-03-01T12:44:49;18.17;;;8.13;;
71435;SDS011;59251;51.326;12.370;2023-03-01T12:50:20;18.23;;;7.60;;
71435;SDS011;59251;51.326;12.370;2023-03-01T12:52:50;15.93;;;7.40;;
71435;SDS011;59251;51.326;12.370;2023-03-01T12:55:25;19.33;;;6.72;;
71435;SDS011;59251;51.326;12.370;2023-03-01T13:03:02;20.37;;;8.53;;
71435;SDS011;59251;51.326;12.370;2023-03-01T13:08:36;18.83;;;9.13;;
71435;SDS011;59251;51.326;12.370;2023-03-01T13:11:14;19.67;;;9.75;;
71435;SDS011;59251;51.326;12.370;2023-03-01T13:13:43;21.90;;;9.93;;
71435;SDS011;59251;51.326;12.370;2023-03-01T13:16:20;24.87;;;10.00;;
71435;SDS011;59251;51.326;12.370;2023-03-01T13:19:15;19.70;;;8.35;;
71435;SDS011;59251;51.326;12.370;2023-03-01T13:21:45;17.83;;;8.30;;
71435;SDS011;59251;51.326;12.370;2023-03-01T13:24:25;18.45;;;7.20;;
71435;SDS011;59251;51.326;12.370;2023-03-01T13:32:25;18.73;;;9.88;;
71435;SDS011;59251;51.326;12.370;2023-03-01T13:34:51;18.70;;;7.67;;
71435;SDS011;59251;51.326;12.370;2023-03-01T13:37:22;17.88;;;8.13;;
71435;SDS011;59251;51.326;12.370;2023-03-01T13:39:54;18.80;;;7.50;;
71435;SDS011;59251;51.326;12.370;2023-03-01T13:44:59;18.80;;;9.32;;
71435;SDS011;59251;51.326;12.370;2023-03-01T13:47:25;19.43;;;7.70;;
71435;SDS011;59251;51.326;12.370;2023-03-01T13:52:36;17.73;;;7.65;;
71435;SDS011;59251;51.326;12.370;2023-03-01T13:57:38;19.38;;;8.38;;
71435;SDS011;59251;51.326;12.370;2023-03-01T14:00:05;19.17;;;7.50;;
71435;SDS011;59251;51.326;12.370;2023-03-01T14:02:31;20.73;;;8.40;;
71435;SDS011;59251;51.326;12.370;2023-03-01T14:04:57;16.25;;;8.10;;
71435;SDS011;59251;51.326;12.370;2023-03-01T14:07:24;17.02;;;8.23;;
71435;SDS011;59251;51.326;12.370;2023-03-01T14:09:58;18.03;;;7.73;;
71435;SDS011;59251;51.326;12.370;2023-03-01T14:20:21;21.50;;;10.07;;
71435;SDS011;59251;51.326;12.370;2023-03-01T14:22:49;15.77;;;8.13;;
71435;SDS011;59251;51.326;12.370;2023-03-01T14:25:36;16.15;;;7.63;;
71435;SDS011;59251;51.326;12.370;2023-03-01T14:30:40;15.05;;;6.53;;
71435;SDS011;59251;51.326;12.370;2023-03-01T14:33:17;13.60;;;6.05;;
71435;SDS011;59251;51.326;12.370;2023-03-01T14:35:56;17.30;;;6.90;;
71435;SDS011;59251;51.326;12.370;2023-03-01T14:38:29;16.48;;;6.65;;
71435;SDS011;59251;51.326;12.370;2023-03-01T14:41:00;15.88;;;7.32;;
71435;SDS011;59251;51.326;12.370;2023-03-01T14:43:30;16.83;;;6.60;;
71435;SDS011;59251;51.326;12.370;2023-03-01T14:45:57;14.98;;;6.43;;
71435;SDS011;59251;51.326;12.370;2023-03-01T14:48:23;15.80;;;5.83;;
71435;SDS011;59251;51.326;12.370;2023-03-01T14:50:49;16.05;;;5.90;;
71435;SDS011;59251;51.326;12.370;2023-03-01T14:53:25;14.40;;;5.55;;
71435;SDS011;59251;51.326;12.370;2023-03-01T14:55:53;15.25;;;5.47;;
71435;SDS011;59251;51.326;12.370;2023-03-01T14:58:21;16.40;;;6.32;;
71435;SDS011;59251;51.326;12.370;2023-03-01T15:00:50;14.48;;;5.45;;
71435;SDS011;59251;51.326;12.370;2023-03-01T15:03:23;15.68;;;5.75;;
71435;SDS011;59251;51.326;12.370;2023-03-01T15:06:11;14.13;;;6.55;;
71435;SDS011;59251;51.326;12.370;2023-03-01T15:08:47;15.07;;;5.53;;
71435;SDS011;59251;51.326;12.370;2023-03-01T15:11:22;12.97;;;5.03;;
71435;SDS011;59251;51.326;12.370;2023-03-01T15:13:49;14.13;;;5.00;;
71435;SDS011;59251;51.326;12.370;2023-03-01T15:16:16;12.55;;;5.45;;
71435;SDS011;59251;51.326;12.370;2023-03-01T15:19:05;14.88;;;5.40;;
71435;SDS011;59251;51.326;12.370;2023-03-01T15:21:33;16.25;;;6.28;;
71435;SDS011;59251;51.326;12.370;2023-03-01T15:24:07;11.73;;;5.27;;
71435;SDS011;59251;51.326;12.370;2023-03-01T15:27:13;14.48;;;5.20;;
71435;SDS011;59251;51.326;12.370;2023-03-01T15:29:38;14.10;;;5.32;;
71435;SDS011;59251;51.326;12.370;2023-03-01T15:32:27;12.90;;;5.00;;
71435;SDS011;59251;51.326;12.370;2023-03-01T15:38:00;12.63;;;5.32;;
71435;SDS011;59251;51.326;12.370;2023-03-01T15:40:27;11.80;;;4.95;;
71435;SDS011;59251;51.326;12.370;2023-03-01T15:42:58;13.30;;;5.55;;
71435;SDS011;59251;51.326;12.370;2023-03-01T15:45:25;14.98;;;5.70;;
71435;SDS011;59251;51.326;12.370;2023-03-01T15:50:54;15.40;;;6.57;;
71435;SDS011;59251;51.326;12.370;2023-03-01T15:53:22;13.50;;;4.93;;
71435;SDS011;59251;51.326;12.370;2023-03-01T15:55:47;13.38;;;5.70;;
71435;SDS011;59251;51.326;12.370;2023-03-01T15:58:16;12.68;;;4.88;;
71435;SDS011;59251;51.326;12.370;2023-03-01T16:00:44;12.43;;;4.38;;
71435;SDS011;59251;51.326;12.370;2023-03-01T16:03:10;13.60;;;4.50;;
71435;SDS011;59251;51.326;12.370;2023-03-01T16:05:37;16.80;;;5.30;;
71435;SDS011;59251;51.326;12.370;2023-03-01T16:08:03;13.38;;;5.93;;
71435;SDS011;59251;51.326;12.370;2023-03-01T16:10:30;15.20;;;4.70;;
71435;SDS011;59251;51.326;12.370;2023-03-01T16:12:57;15.15;;;4.68;;
71435;SDS011;59251;51.326;12.370;2023-03-01T16:15:24;13.65;;;5.40;;
71435;SDS011;59251;51.326;12.370;2023-03-01T16:17:52;12.55;;;4.85;;